createdAt,value
2019-03-13T00:02:30.580Z,229
2019-03-13T00:07:30.567Z,229
2019-03-13T00:12:30.551Z,230
2019-03-13T00:17:30.569Z,229
2019-03-13T00:22:30.538Z,230
2019-03-13T00:27:30.514Z,230
2019-03-13T00:32:30.506Z,230
2019-03-13T00:37:30.520Z,228
2019-03-13T00:37:35.475Z,229
2019-03-13T00:37:47.505Z,228
2019-03-13T00:42:30.503Z,229
2019-03-13T00:43:15.476Z,229
2019-03-13T00:43:17.485Z,229
2019-03-13T00:47:30.528Z,232
2019-03-13T00:52:30.514Z,231
2019-03-13T00:57:30.499Z,233
2019-03-13T01:02:30.509Z,231
2019-03-13T01:07:30.514Z,233
2019-03-13T01:12:30.485Z,231
2019-03-13T01:17:30.482Z,231
2019-03-13T01:22:30.527Z,233
2019-03-13T01:24:46.433Z,233
2019-03-13T01:24:50.434Z,233
2019-03-13T01:27:30.502Z,234
2019-03-13T01:29:14.437Z,233
2019-03-13T01:29:16.453Z,233
2019-03-13T01:32:30.492Z,231
2019-03-13T01:35:14.466Z,231
2019-03-13T01:35:18.445Z,231
2019-03-13T01:37:30.463Z,233
2019-03-13T01:42:30.466Z,231
2019-03-13T01:47:30.441Z,234
2019-03-13T01:52:32.218Z,235
2019-03-13T01:55:00.433Z,235
2019-03-13T01:55:04.388Z,235
2019-03-13T01:55:48.418Z,234
2019-03-13T01:55:54.427Z,234
2019-03-13T01:57:30.470Z,233
2019-03-13T02:02:30.463Z,233
2019-03-13T02:07:30.440Z,232
2019-03-13T02:12:30.434Z,233
2019-03-13T02:17:30.445Z,234
2019-03-13T02:22:30.435Z,232
2019-03-13T02:25:38.377Z,233
2019-03-13T02:25:42.385Z,233
2019-03-13T02:27:30.443Z,233
2019-03-13T02:32:30.423Z,232
2019-03-13T02:34:20.360Z,232
2019-03-13T02:35:34.359Z,232
2019-03-13T02:37:30.413Z,232
2019-03-13T02:37:46.358Z,231
2019-03-13T02:37:50.373Z,231
2019-03-13T02:39:18.415Z,231
2019-03-13T02:39:24.356Z,231
2019-03-13T02:42:30.437Z,233
2019-03-13T02:47:30.417Z,233
2019-03-13T02:52:30.400Z,233
2019-03-13T02:53:48.351Z,233
2019-03-13T02:54:00.374Z,233
2019-03-13T02:54:28.364Z,232
2019-03-13T02:54:50.377Z,233
2019-03-13T02:57:30.406Z,232
2019-03-13T02:57:38.398Z,232
2019-03-13T02:57:42.327Z,232
2019-03-13T02:59:02.352Z,232
2019-03-13T02:59:06.352Z,233
2019-03-13T03:01:54.365Z,232
2019-03-13T03:01:56.325Z,232
2019-03-13T03:02:30.401Z,232
2019-03-13T03:04:38.360Z,232
2019-03-13T03:04:54.340Z,232
2019-03-13T03:07:30.377Z,233
2019-03-13T03:12:30.458Z,232
2019-03-13T03:14:46.327Z,232
2019-03-13T03:14:50.335Z,232
2019-03-13T03:17:30.386Z,231
2019-03-13T03:22:30.360Z,230
2019-03-13T03:27:24.325Z,233
2019-03-13T03:27:30.349Z,233
2019-03-13T03:27:38.345Z,233
2019-03-13T03:32:30.421Z,235
2019-03-13T03:37:30.383Z,235
2019-03-13T03:41:23.294Z,233
2019-03-13T03:41:37.335Z,233
2019-03-13T03:42:30.370Z,232
2019-03-13T03:47:30.377Z,231
2019-03-13T03:51:45.278Z,232
2019-03-13T03:51:49.296Z,232
2019-03-13T03:52:30.357Z,232
2019-03-13T03:54:55.309Z,231
2019-03-13T03:55:13.311Z,230
2019-03-13T03:56:09.314Z,232
2019-03-13T03:56:13.274Z,232
2019-03-13T03:57:30.381Z,233
2019-03-13T04:02:30.354Z,231
2019-03-13T04:07:30.306Z,225
2019-03-13T04:12:30.326Z,228
2019-03-13T04:17:30.328Z,226
2019-03-13T04:20:45.303Z,224
2019-03-13T04:20:49.306Z,224
2019-03-13T04:22:30.329Z,225
2019-03-13T04:27:30.319Z,229
2019-03-13T04:32:30.358Z,227
2019-03-13T04:37:30.307Z,225
2019-03-13T04:42:30.290Z,226
2019-03-13T04:47:30.350Z,225
2019-03-13T04:52:30.322Z,220
2019-03-13T04:57:30.309Z,224
2019-03-13T05:02:30.289Z,218
2019-03-13T05:07:30.285Z,224
2019-03-13T05:12:30.253Z,220
2019-03-13T05:17:30.277Z,221
2019-03-13T05:22:30.264Z,219
2019-03-13T05:27:30.282Z,218
2019-03-13T05:32:30.288Z,223
2019-03-13T05:37:30.240Z,223
2019-03-13T05:42:30.262Z,222
2019-03-13T05:47:30.249Z,216
2019-03-13T05:52:30.234Z,216
2019-03-13T05:57:30.239Z,219
2019-03-13T06:02:30.257Z,218
2019-03-13T06:07:30.239Z,213
2019-03-13T06:12:30.223Z,217
2019-03-13T06:17:30.209Z,220
2019-03-13T06:22:30.223Z,216
2019-03-13T06:27:30.200Z,221
2019-03-13T06:32:30.200Z,224
2019-03-13T06:37:30.226Z,225
2019-03-13T06:42:30.183Z,222
2019-03-13T06:47:30.168Z,216
2019-03-13T06:52:31.575Z,219
2019-03-13T06:57:30.173Z,217
2019-03-13T07:02:30.193Z,219
2019-03-13T07:07:30.173Z,218
2019-03-13T07:12:30.203Z,220
2019-03-13T07:17:30.173Z,221
2019-03-13T07:22:30.131Z,220
2019-03-13T07:27:30.185Z,218
2019-03-13T07:32:30.150Z,221
2019-03-13T07:35:48.110Z,224
2019-03-13T07:35:52.075Z,225
2019-03-13T07:37:30.147Z,220
2019-03-13T07:42:30.131Z,223
2019-03-13T07:47:30.112Z,221
2019-03-13T07:52:32.531Z,219
2019-03-13T07:57:30.128Z,216
2019-03-13T08:02:30.141Z,216
2019-03-13T08:07:30.079Z,217
2019-03-13T08:12:30.101Z,220
2019-03-13T08:17:30.144Z,220
2019-03-13T08:22:30.122Z,218
2019-03-13T08:27:30.090Z,214
2019-03-13T08:32:30.086Z,220
2019-03-13T08:37:30.084Z,227
2019-03-13T08:42:30.067Z,224
2019-03-13T08:47:30.081Z,222
2019-03-13T08:52:30.067Z,222
2019-03-13T08:57:30.054Z,221
2019-03-13T09:02:30.093Z,218
2019-03-13T09:07:30.063Z,219
2019-03-13T09:12:30.038Z,217
2019-03-13T09:17:30.051Z,223
2019-03-13T09:22:30.057Z,223
2019-03-13T09:27:30.033Z,226
2019-03-13T09:32:30.069Z,225
2019-03-13T09:37:30.016Z,224
2019-03-13T09:42:29.993Z,224
2019-03-13T09:47:30.066Z,226
2019-03-13T09:52:30.033Z,223
2019-03-13T09:57:30.002Z,224
2019-03-13T10:02:29.986Z,223
2019-03-13T10:07:30.035Z,225
2019-03-13T10:12:29.972Z,223
2019-03-13T10:17:30.008Z,224
2019-03-13T10:20:10.939Z,224
2019-03-13T10:20:14.952Z,222
2019-03-13T10:22:29.959Z,227
2019-03-13T10:24:18.964Z,226
2019-03-13T10:24:22.949Z,226
2019-03-13T10:27:29.967Z,224
2019-03-13T10:32:30.008Z,223
2019-03-13T10:37:29.981Z,227
2019-03-13T10:42:29.984Z,227
2019-03-13T10:43:04.906Z,229
2019-03-13T10:43:10.918Z,228
2019-03-13T10:47:29.960Z,227
2019-03-13T10:52:29.943Z,229
2019-03-13T10:57:29.962Z,224
2019-03-13T11:02:29.985Z,226
2019-03-13T11:07:29.952Z,225
2019-03-13T11:12:29.977Z,227
2019-03-13T11:17:29.925Z,230
2019-03-13T11:22:29.967Z,227
2019-03-13T11:27:29.894Z,225
2019-03-13T11:32:29.939Z,225
2019-03-13T11:37:29.890Z,226
2019-03-13T11:42:29.895Z,225
2019-03-13T11:47:41.650Z,227
2019-03-13T11:52:29.871Z,226
2019-03-13T11:57:29.888Z,224
2019-03-13T12:02:29.913Z,224
2019-03-13T12:07:29.901Z,223
2019-03-13T12:12:29.860Z,223
2019-03-13T12:17:29.894Z,227
2019-03-13T12:22:29.883Z,223
2019-03-13T12:27:29.843Z,226
2019-03-13T12:32:29.833Z,226
2019-03-13T12:37:29.892Z,222
2019-03-13T12:42:29.848Z,224
2019-03-13T12:47:29.883Z,225
2019-03-13T12:52:29.850Z,225
2019-03-13T12:57:29.818Z,225
2019-03-13T13:02:29.816Z,226
2019-03-13T13:07:29.826Z,225
2019-03-13T13:12:29.827Z,228
2019-03-13T13:17:29.811Z,225
2019-03-13T13:22:29.800Z,225
2019-03-13T13:27:29.825Z,228
2019-03-13T13:32:29.789Z,223
2019-03-13T13:37:29.812Z,227
2019-03-13T13:42:29.800Z,224
2019-03-13T13:47:29.782Z,224
2019-03-13T13:52:29.820Z,227
2019-03-13T13:57:29.783Z,222
2019-03-13T14:02:29.793Z,220
2019-03-13T14:07:29.785Z,224
2019-03-13T14:12:29.770Z,227
2019-03-13T14:17:29.770Z,228
2019-03-13T14:22:29.804Z,225
2019-03-13T14:27:29.766Z,223
2019-03-13T14:32:29.762Z,226
2019-03-13T14:37:29.781Z,227
2019-03-13T14:42:29.755Z,227
2019-03-13T14:47:29.735Z,231
2019-03-13T14:52:29.761Z,227
2019-03-13T14:57:29.736Z,226
2019-03-13T15:02:29.713Z,225
2019-03-13T15:07:29.752Z,226
2019-03-13T15:12:29.717Z,227
2019-03-13T15:17:29.708Z,226
2019-03-13T15:22:29.724Z,224
2019-03-13T15:27:29.697Z,223
2019-03-13T15:32:29.696Z,227
2019-03-13T15:37:29.685Z,223
2019-03-13T15:40:10.664Z,222
2019-03-13T15:40:18.641Z,223
2019-03-13T15:42:29.671Z,224
2019-03-13T15:47:29.687Z,224
2019-03-13T15:52:29.694Z,228
2019-03-13T15:57:29.660Z,226
2019-03-13T15:58:40.626Z,228
2019-03-13T15:58:44.603Z,228
2019-03-13T16:02:29.674Z,227
2019-03-13T16:07:29.676Z,224
2019-03-13T16:12:29.660Z,225
2019-03-13T16:17:29.643Z,225
2019-03-13T16:22:29.685Z,223
2019-03-13T16:27:29.670Z,220
2019-03-13T16:32:29.655Z,222
2019-03-13T16:37:29.630Z,222
2019-03-13T16:42:29.642Z,226
2019-03-13T16:47:29.623Z,220
2019-03-13T16:52:29.636Z,222
2019-03-13T16:57:29.635Z,220
2019-03-13T17:02:29.630Z,222
2019-03-13T17:07:29.674Z,222
2019-03-13T17:12:29.620Z,219
2019-03-13T17:17:29.607Z,222
2019-03-13T17:22:29.614Z,225
2019-03-13T17:27:29.590Z,222
2019-03-13T17:32:29.606Z,218
2019-03-13T17:37:29.559Z,220
2019-03-13T17:42:29.606Z,216
2019-03-13T17:47:29.563Z,216
2019-03-13T17:51:55.525Z,218
2019-03-13T17:51:59.540Z,218
2019-03-13T17:52:29.582Z,219
2019-03-13T17:57:29.581Z,222
2019-03-13T18:02:29.550Z,222
2019-03-13T18:05:45.516Z,225
2019-03-13T18:05:51.529Z,226
2019-03-13T18:07:29.563Z,224
2019-03-13T18:12:29.572Z,221
2019-03-13T18:17:29.550Z,225
2019-03-13T18:22:29.544Z,220
2019-03-13T18:27:29.505Z,221
2019-03-13T18:32:41.218Z,220
2019-03-13T18:37:29.510Z,220
2019-03-13T18:42:29.517Z,217
2019-03-13T18:47:29.527Z,224
2019-03-13T18:52:29.526Z,219
2019-03-13T18:57:29.550Z,219
2019-03-13T19:02:29.493Z,218
2019-03-13T19:07:29.523Z,222
2019-03-13T19:12:29.495Z,219
2019-03-13T19:17:29.505Z,221
2019-03-13T19:22:29.457Z,220
2019-03-13T19:27:29.513Z,222
2019-03-13T19:32:29.482Z,222
2019-03-13T19:37:29.505Z,224
2019-03-13T19:42:29.458Z,225
2019-03-13T19:47:29.469Z,224
2019-03-13T19:51:54.416Z,222
2019-03-13T19:51:58.382Z,225
2019-03-13T19:52:29.477Z,225
2019-03-13T19:57:29.439Z,226
2019-03-13T20:02:29.435Z,226
2019-03-13T20:07:29.464Z,226
2019-03-13T20:12:29.423Z,224
2019-03-13T20:17:29.567Z,226
2019-03-13T20:22:29.468Z,226
2019-03-13T20:27:29.409Z,227
2019-03-13T20:32:29.441Z,227
2019-03-13T20:37:29.525Z,226
2019-03-13T20:42:32.320Z,227
2019-03-13T20:47:29.423Z,225
2019-03-13T20:52:29.378Z,226
2019-03-13T20:57:29.405Z,226
2019-03-13T21:02:29.408Z,226
2019-03-13T21:07:29.366Z,226
2019-03-13T21:12:29.386Z,225
2019-03-13T21:17:29.389Z,223
2019-03-13T21:22:29.372Z,224
2019-03-13T21:27:29.358Z,223
2019-03-13T21:32:29.376Z,224
2019-03-13T21:34:55.294Z,225
2019-03-13T21:35:05.327Z,225
2019-03-13T21:37:29.367Z,220
2019-03-13T21:42:29.372Z,226
2019-03-13T21:47:29.335Z,226
2019-03-13T21:51:33.274Z,228
2019-03-13T21:51:35.275Z,228
2019-03-13T21:52:29.359Z,227
2019-03-13T21:57:29.349Z,225
2019-03-13T22:02:32.950Z,225
2019-03-13T22:07:29.369Z,225
2019-03-13T22:12:29.310Z,229
2019-03-13T22:17:29.368Z,229
2019-03-13T22:22:29.313Z,228
2019-03-13T22:27:29.274Z,229
2019-03-13T22:32:29.325Z,233
2019-03-13T22:37:29.315Z,232
2019-03-13T22:41:37.222Z,233
2019-03-13T22:41:41.234Z,233
2019-03-13T22:42:30.736Z,233
2019-03-13T22:47:41.588Z,232
2019-03-13T22:48:15.242Z,232
2019-03-13T22:48:41.236Z,231
2019-03-13T22:52:29.264Z,230
2019-03-13T22:57:29.260Z,230
2019-03-13T23:02:19.251Z,233
2019-03-13T23:02:29.286Z,233
2019-03-13T23:02:41.216Z,229
2019-03-13T23:07:29.291Z,229
2019-03-13T23:12:30.392Z,229
2019-03-13T23:17:29.236Z,231
2019-03-13T23:20:43.223Z,231
2019-03-13T23:20:51.219Z,230
2019-03-13T23:22:29.267Z,228
2019-03-13T23:27:29.296Z,230
2019-03-13T23:32:29.237Z,232
2019-03-13T23:32:35.241Z,232
2019-03-13T23:33:01.177Z,231
2019-03-13T23:37:13.167Z,231
2019-03-13T23:37:15.182Z,231
2019-03-13T23:37:29.219Z,232
2019-03-13T23:38:59.168Z,232
2019-03-13T23:39:15.289Z,232
2019-03-13T23:42:29.210Z,232
2019-03-13T23:45:43.224Z,233
2019-03-13T23:45:49.170Z,233
2019-03-13T23:47:29.230Z,234
2019-03-13T23:52:29.250Z,233
2019-03-13T23:57:29.259Z,234
